createdAt,value
2022-09-14T00:01:31.922Z,100968.41
2022-09-14T00:04:04.820Z,100972.69
2022-09-14T00:06:31.820Z,100977.66
2022-09-14T00:09:00.881Z,100977.75
2022-09-14T00:11:29.878Z,100969.84
2022-09-14T00:13:58.140Z,100969.69
2022-09-14T00:16:28.221Z,100967.88
2022-09-14T00:19:00.201Z,100971.34
2022-09-14T00:21:27.448Z,100961.69
2022-09-14T00:23:53.859Z,100961.91
2022-09-14T00:26:22.604Z,100955.06
2022-09-14T00:28:52.425Z,100949.69
2022-09-14T00:31:20.405Z,100954.03
2022-09-14T00:33:48.536Z,100949.06
2022-09-14T00:36:20.550Z,100940.47
2022-09-14T00:38:47.568Z,100939.13
2022-09-14T00:41:22.587Z,100931.03
2022-09-14T00:43:54.860Z,100929.13
2022-09-14T00:46:21.623Z,100927.44
2022-09-14T00:48:48.476Z,100920.16
2022-09-14T00:51:17.309Z,100923.97
2022-09-14T00:53:43.926Z,100917.88
2022-09-14T00:56:10.862Z,100922.06
2022-09-14T00:58:38.669Z,100916.06
2022-09-14T01:01:05.283Z,100917.16
2022-09-14T01:03:31.758Z,100911.03
2022-09-14T01:06:14.315Z,100909.03
2022-09-14T01:08:54.422Z,100908.19
2022-09-14T01:11:42.416Z,100904.00
2022-09-14T01:14:23.399Z,100899.06
2022-09-14T01:17:11.950Z,100895.13
2022-09-14T01:20:09.359Z,100890.59
2022-09-14T01:22:47.903Z,100882.59
2022-09-14T01:25:27.910Z,100885.44
2022-09-14T01:27:57.027Z,100883.78
2022-09-14T01:30:24.377Z,100877.91
2022-09-14T01:32:56.674Z,100888.44
2022-09-14T01:35:31.878Z,100888.44
2022-09-14T01:38:05.285Z,100885.19
2022-09-14T01:40:44.986Z,100883.84
2022-09-14T01:43:17.423Z,100888.13
2022-09-14T01:45:49.796Z,100878.41
2022-09-14T01:48:21.106Z,100889.50
2022-09-14T01:50:52.177Z,100882.16
2022-09-14T01:53:37.796Z,100878.56
2022-09-14T01:56:15.215Z,100871.03
2022-09-14T01:58:56.788Z,100868.50
2022-09-14T02:01:35.490Z,100867.56
2022-09-14T02:04:07.593Z,100865.88
2022-09-14T02:06:36.033Z,100862.53
2022-09-14T02:09:04.066Z,100864.09
2022-09-14T02:11:30.794Z,100856.22
2022-09-14T02:13:57.262Z,100858.72
2022-09-14T02:16:25.646Z,100852.03
2022-09-14T02:18:52.852Z,100854.16
2022-09-14T02:21:27.641Z,100857.50
2022-09-14T02:23:54.248Z,100856.69
2022-09-14T02:26:23.066Z,100845.09
2022-09-14T02:28:49.986Z,100850.13
2022-09-14T02:31:44.564Z,100848.34
2022-09-14T02:34:26.247Z,100846.19
2022-09-14T02:37:00.999Z,100840.19
2022-09-14T02:39:39.920Z,100844.50
2022-09-14T02:42:28.147Z,100835.53
2022-09-14T02:45:06.959Z,100834.00
2022-09-14T02:48:15.051Z,100827.06
2022-09-14T02:50:54.749Z,100821.09
2022-09-14T02:53:35.284Z,100824.56
2022-09-14T02:56:07.772Z,100820.13
2022-09-14T02:58:36.586Z,100816.69
2022-09-14T03:01:03.905Z,100817.84
2022-09-14T03:03:35.348Z,100809.97
2022-09-14T03:06:02.282Z,100815.00
2022-09-14T03:08:28.786Z,100814.25
2022-09-14T03:10:55.391Z,100809.75
2022-09-14T03:13:22.421Z,100810.47
2022-09-14T03:15:48.838Z,100805.56
2022-09-14T03:18:15.671Z,100809.97
2022-09-14T03:20:42.796Z,100808.31
2022-09-14T03:23:10.785Z,100811.06
2022-09-14T03:25:43.438Z,100807.59
2022-09-14T03:28:11.914Z,100799.09
2022-09-14T03:30:38.350Z,100805.19
2022-09-14T03:33:04.783Z,100800.47
2022-09-14T03:35:31.917Z,100788.22
2022-09-14T03:37:59.698Z,100789.75
2022-09-14T03:40:26.761Z,100783.03
2022-09-14T03:42:53.443Z,100785.53
2022-09-14T03:45:21.139Z,100775.03
2022-09-14T03:47:47.701Z,100789.75
2022-09-14T03:50:15.398Z,100788.03
2022-09-14T03:52:42.216Z,100776.63
2022-09-14T03:55:09.350Z,100774.09
2022-09-14T03:57:36.209Z,100769.78
2022-09-14T04:00:04.361Z,100774.19
2022-09-14T04:02:30.758Z,100768.13
2022-09-14T04:04:57.539Z,100769.81
2022-09-14T04:07:23.925Z,100761.22
2022-09-14T04:09:50.348Z,100752.63
2022-09-14T04:12:16.893Z,100749.91
2022-09-14T04:14:43.254Z,100762.53
2022-09-14T04:17:09.812Z,100766.94
2022-09-14T04:19:38.138Z,100761.19
2022-09-14T04:22:05.336Z,100767.03
2022-09-14T04:24:31.905Z,100762.72
2022-09-14T04:26:58.286Z,100760.00
2022-09-14T04:29:25.056Z,100761.81
2022-09-14T04:31:51.591Z,100757.63
2022-09-14T04:34:17.959Z,100759.63
2022-09-14T04:36:44.424Z,100757.00
2022-09-14T04:39:13.909Z,100753.53
2022-09-14T04:41:40.341Z,100752.56
2022-09-14T04:44:06.847Z,100755.09
2022-09-14T04:46:45.049Z,100747.00
2022-09-14T04:49:13.296Z,100744.28
2022-09-14T04:51:39.739Z,100741.88
2022-09-14T04:54:07.320Z,100736.22
2022-09-14T04:56:36.854Z,100737.28
2022-09-14T04:59:05.596Z,100736.22
2022-09-14T05:01:38.472Z,100738.53
2022-09-14T05:04:07.026Z,100736.94
2022-09-14T05:06:35.718Z,100734.81
2022-09-14T05:09:04.428Z,100741.69
2022-09-14T05:11:35.637Z,100742.88
2022-09-14T05:14:02.409Z,100748.22
2022-09-14T05:16:31.608Z,100747.28
2022-09-14T05:19:03.827Z,100741.81
2022-09-14T05:21:32.415Z,100747.91
2022-09-14T05:24:01.115Z,100743.38
2022-09-14T05:26:30.430Z,100744.56
2022-09-14T05:28:58.723Z,100748.22
2022-09-14T05:31:26.900Z,100744.03
2022-09-14T05:33:54.077Z,100746.47
2022-09-14T05:36:21.040Z,100756.94
2022-09-14T05:38:47.728Z,100750.63
2022-09-14T05:41:15.742Z,100747.03
2022-09-14T05:43:43.093Z,100740.16
2022-09-14T05:46:15.453Z,100736.56
2022-09-14T05:48:43.065Z,100736.56
2022-09-14T05:51:15.891Z,100745.59
2022-09-14T05:53:43.562Z,100739.03
2022-09-14T05:56:13.670Z,100736.91
2022-09-14T05:58:42.022Z,100739.31
2022-09-14T06:01:11.848Z,100733.09
2022-09-14T06:03:38.692Z,100733.09
2022-09-14T06:06:07.668Z,100737.63
2022-09-14T06:08:34.665Z,100744.88
2022-09-14T06:11:09.747Z,100745.38
2022-09-14T06:13:36.706Z,100739.09
2022-09-14T06:16:11.651Z,100737.41
2022-09-14T06:18:39.506Z,100741.06
2022-09-14T06:21:07.244Z,100753.25
2022-09-14T06:23:34.032Z,100756.81
2022-09-14T06:26:02.280Z,100759.34
2022-09-14T06:28:29.805Z,100763.84
2022-09-14T06:30:57.157Z,100764.81
2022-09-14T06:33:24.207Z,100754.44
2022-09-14T06:36:02.274Z,100746.00
2022-09-14T06:38:29.900Z,100749.03
2022-09-14T06:41:01.770Z,100754.66
2022-09-14T06:43:31.687Z,100752.25
2022-09-14T06:46:07.254Z,100750.78
2022-09-14T06:48:38.605Z,100749.97
2022-09-14T06:51:21.916Z,100741.53
2022-09-14T06:53:49.784Z,100741.44
2022-09-14T06:56:16.704Z,100741.03
2022-09-14T06:58:43.606Z,100751.41
2022-09-14T07:01:19.690Z,100753.41
2022-09-14T07:03:47.173Z,100752.56
2022-09-14T07:06:16.648Z,100751.41
2022-09-14T07:08:43.851Z,100753.69
2022-09-14T07:11:12.289Z,100746.56
2022-09-14T07:13:38.895Z,100744.66
2022-09-14T07:16:06.154Z,100742.25
2022-09-14T07:18:33.114Z,100743.44
2022-09-14T07:21:06.835Z,100748.44
2022-09-14T07:23:35.445Z,100749.91
2022-09-14T07:26:07.534Z,100750.41
2022-09-14T07:28:35.261Z,100742.84
2022-09-14T07:31:01.991Z,100751.78
2022-09-14T07:33:29.166Z,100749.16
2022-09-14T07:36:04.795Z,100746.00
2022-09-14T07:38:51.204Z,100739.59
2022-09-14T07:41:18.130Z,100737.56
2022-09-14T07:43:48.185Z,100733.06
2022-09-14T07:46:14.723Z,100740.94
2022-09-14T07:48:41.181Z,100742.25
2022-09-14T07:51:10.313Z,100736.56
2022-09-14T07:53:45.596Z,100735.50
2022-09-14T07:56:13.803Z,100738.56
2022-09-14T07:58:40.332Z,100727.59
2022-09-14T08:01:12.686Z,100727.97
2022-09-14T08:03:41.090Z,100739.19
2022-09-14T08:06:16.777Z,100734.66
2022-09-14T08:08:45.292Z,100737.28
2022-09-14T08:11:14.133Z,100741.44
2022-09-14T08:13:55.605Z,100743.00
2022-09-14T08:16:23.055Z,100744.34
2022-09-14T08:18:57.446Z,100744.72
2022-09-14T08:21:25.165Z,100734.09
2022-09-14T08:23:51.814Z,100743.75
2022-09-14T08:26:21.984Z,100741.47
2022-09-14T08:28:50.358Z,100746.50
2022-09-14T08:31:24.870Z,100735.19
2022-09-14T08:33:56.492Z,100729.50
2022-09-14T08:36:24.353Z,100732.59
2022-09-14T08:38:51.236Z,100724.00
2022-09-14T08:41:29.571Z,100721.84
2022-09-14T08:44:13.669Z,100723.75
2022-09-14T08:46:55.611Z,100715.88
2022-09-14T08:49:47.497Z,100709.56
2022-09-14T08:52:28.372Z,100716.38
2022-09-14T08:55:01.122Z,100710.88
2022-09-14T08:57:31.907Z,100709.81
2022-09-14T09:00:05.180Z,100707.06
2022-09-14T09:02:47.250Z,100709.69
2022-09-14T09:05:32.933Z,100708.84
2022-09-14T09:08:21.342Z,100708.59
2022-09-14T09:10:48.989Z,100711.94
2022-09-14T09:13:20.426Z,100712.66
2022-09-14T09:15:50.723Z,100714.25
2022-09-14T09:18:23.839Z,100709.72
2022-09-14T09:20:59.914Z,100713.75
2022-09-14T09:23:28.975Z,100710.44
2022-09-14T09:26:00.486Z,100712.19
2022-09-14T09:28:28.606Z,100717.44
2022-09-14T09:30:59.105Z,100713.63
2022-09-14T09:33:28.087Z,100704.44
2022-09-14T09:35:55.708Z,100698.84
2022-09-14T09:38:27.674Z,100697.38
2022-09-14T09:40:58.753Z,100703.13
2022-09-14T09:43:48.004Z,100704.69
2022-09-14T09:46:12.622Z,100707.91
2022-09-14T09:48:39.105Z,100712.56
2022-09-14T09:51:15.725Z,100712.56
2022-09-14T09:53:54.515Z,100710.03
2022-09-14T09:56:33.383Z,100712.69
2022-09-14T09:58:59.924Z,100710.03
2022-09-14T10:01:35.463Z,100707.78
2022-09-14T10:04:05.208Z,100710.44
2022-09-14T10:06:32.538Z,100711.28
2022-09-14T10:08:59.455Z,100710.53
2022-09-14T10:11:32.935Z,100713.66
2022-09-14T10:14:00.701Z,100710.81
2022-09-14T10:16:34.643Z,100710.28
2022-09-14T10:19:03.159Z,100718.06
2022-09-14T10:21:31.276Z,100707.66
2022-09-14T10:24:14.918Z,100707.44
2022-09-14T10:26:41.456Z,100698.72
2022-09-14T10:29:30.508Z,100692.03
2022-09-14T10:32:03.074Z,100690.50
2022-09-14T10:34:29.664Z,100689.53
2022-09-14T10:37:07.631Z,100692.59
2022-09-14T10:39:51.315Z,100688.78
2022-09-14T10:42:31.696Z,100680.78
2022-09-14T10:45:17.675Z,100689.25
2022-09-14T10:48:13.744Z,100679.47
2022-09-14T10:50:52.867Z,100676.69
2022-09-14T10:53:44.600Z,100677.28
2022-09-14T10:56:34.950Z,100681.44
2022-09-14T10:59:45.930Z,100682.75
2022-09-14T11:02:43.255Z,100683.34
2022-09-14T11:05:22.236Z,100680.72
2022-09-14T11:08:01.035Z,100688.72
2022-09-14T11:11:09.349Z,100683.47
2022-09-14T11:13:47.660Z,100687.41
2022-09-14T11:16:44.273Z,100692.28
2022-09-14T11:19:37.881Z,100691.31
2022-09-14T11:22:35.194Z,100689.41
2022-09-14T11:25:22.001Z,100693.94
2022-09-14T11:28:03.744Z,100694.66
2022-09-14T11:30:43.041Z,100689.16
2022-09-14T11:33:30.930Z,100685.81
2022-09-14T11:36:10.076Z,100689.41
2022-09-14T11:38:44.352Z,100684.41
2022-09-14T11:41:31.335Z,100689.16
2022-09-14T11:44:21.633Z,100683.91
2022-09-14T11:47:00.752Z,100685.56
2022-09-14T11:49:39.725Z,100686.53
2022-09-14T11:52:21.088Z,100680.88
2022-09-14T11:54:50.067Z,100680.19
2022-09-14T11:57:20.393Z,100688.66
2022-09-14T11:59:55.975Z,100683.47
2022-09-14T12:02:22.374Z,100682.84
2022-09-14T12:05:07.117Z,100685.09
2022-09-14T12:07:39.543Z,100678.03
2022-09-14T12:10:18.010Z,100671.53
2022-09-14T12:12:47.391Z,100669.00
2022-09-14T12:15:23.069Z,100668.56
2022-09-14T12:17:51.848Z,100668.09
2022-09-14T12:20:37.108Z,100677.44
2022-09-14T12:23:42.127Z,100668.38
2022-09-14T12:26:11.923Z,100672.00
2022-09-14T12:28:50.381Z,100665.50
2022-09-14T12:31:44.325Z,100665.22
2022-09-14T12:34:37.065Z,100659.47
2022-09-14T12:37:25.321Z,100661.41
2022-09-14T12:40:29.070Z,100656.53
2022-09-14T12:42:55.642Z,100648.69
2022-09-14T12:45:49.796Z,100644.53
2022-09-14T12:48:55.581Z,100644.84
2022-09-14T12:51:46.959Z,100640.31
2022-09-14T12:54:44.017Z,100629.25
2022-09-14T12:57:19.966Z,100630.66
2022-09-14T13:00:05.373Z,100625.66
2022-09-14T13:02:50.779Z,100621.19
2022-09-14T13:05:22.453Z,100620.47
2022-09-14T13:07:49.460Z,100615.91
2022-09-14T13:10:34.541Z,100613.16
2022-09-14T13:13:05.455Z,100610.09
2022-09-14T13:15:36.890Z,100618.44
2022-09-14T13:18:28.318Z,100619.00
2022-09-14T13:20:58.251Z,100619.84
2022-09-14T13:23:27.745Z,100621.22
2022-09-14T13:25:55.042Z,100606.66
2022-09-14T13:28:21.839Z,100606.41
2022-09-14T13:31:00.958Z,100605.13
2022-09-14T13:33:29.608Z,100613.03
2022-09-14T13:36:00.161Z,100609.72
2022-09-14T13:38:33.366Z,100603.19
2022-09-14T13:41:16.136Z,100610.97
2022-09-14T13:43:44.136Z,100603.59
2022-09-14T13:46:11.997Z,100600.25
2022-09-14T13:48:40.986Z,100595.97
2022-09-14T13:51:09.842Z,100595.53
2022-09-14T13:53:40.440Z,100596.06
2022-09-14T13:56:16.412Z,100603.69
2022-09-14T13:58:42.968Z,100603.31
2022-09-14T14:01:13.102Z,100601.66
2022-09-14T14:03:49.410Z,100606.25
2022-09-14T14:06:27.715Z,100596.66
2022-09-14T14:09:04.212Z,100589.00
2022-09-14T14:11:45.840Z,100585.81
2022-09-14T14:14:15.396Z,100587.19
2022-09-14T14:17:02.593Z,100582.88
2022-09-14T14:19:30.975Z,100584.25
2022-09-14T14:22:15.813Z,100581.75
2022-09-14T14:25:11.789Z,100582.41
2022-09-14T14:27:39.512Z,100567.81
2022-09-14T14:30:13.951Z,100567.81
2022-09-14T14:32:40.555Z,100566.34
2022-09-14T14:35:22.541Z,100565.09
2022-09-14T14:37:50.738Z,100564.63
2022-09-14T14:40:19.221Z,100566.59
2022-09-14T14:42:46.907Z,100571.47
2022-09-14T14:45:19.805Z,100565.78
2022-09-14T14:47:50.862Z,100562.97
2022-09-14T14:50:26.642Z,100557.56
2022-09-14T14:52:54.467Z,100557.97
2022-09-14T14:55:23.004Z,100553.38
2022-09-14T14:57:50.878Z,100548.41
2022-09-14T15:00:22.181Z,100551.03
2022-09-14T15:02:49.430Z,100544.13
2022-09-14T15:05:16.523Z,100549.97
2022-09-14T15:07:43.195Z,100548.19
2022-09-14T15:10:14.066Z,100544.69
2022-09-14T15:12:40.788Z,100543.47
2022-09-14T15:15:13.239Z,100537.50
2022-09-14T15:17:39.881Z,100537.06
2022-09-14T15:20:07.155Z,100539.19
2022-09-14T15:22:38.329Z,100534.47
2022-09-14T15:25:10.273Z,100531.13
2022-09-14T15:27:37.165Z,100530.56
2022-09-14T15:30:05.163Z,100529.88
2022-09-14T15:32:32.456Z,100520.16
2022-09-14T15:35:07.440Z,100525.28
2022-09-14T15:37:34.415Z,100531.41
2022-09-14T15:40:01.223Z,100533.34
2022-09-14T15:42:27.923Z,100524.59
2022-09-14T15:44:54.631Z,100528.50
2022-09-14T15:47:21.234Z,100524.91
2022-09-14T15:49:51.626Z,100528.22
2022-09-14T15:52:18.135Z,100533.78
2022-09-14T15:54:44.693Z,100537.22
2022-09-14T15:57:12.645Z,100539.88
2022-09-14T15:59:39.733Z,100540.03
2022-09-14T16:02:07.020Z,100541.81
2022-09-14T16:04:37.553Z,100546.25
2022-09-14T16:07:09.519Z,100540.16
2022-09-14T16:09:38.466Z,100553.34
2022-09-14T16:12:06.323Z,100552.53
2022-09-14T16:14:33.558Z,100551.84
2022-09-14T16:17:00.788Z,100562.38
2022-09-14T16:19:27.668Z,100562.66
2022-09-14T16:21:55.013Z,100568.78
2022-09-14T16:24:22.981Z,100577.06
2022-09-14T16:26:49.502Z,100573.75
2022-09-14T16:29:18.369Z,100572.09
2022-09-14T16:31:47.207Z,100578.47
2022-09-14T16:34:19.963Z,100577.91
2022-09-14T16:36:47.349Z,100579.16
2022-09-14T16:39:17.061Z,100582.09
2022-09-14T16:41:44.184Z,100579.97
2022-09-14T16:44:21.462Z,100575.66
2022-09-14T16:46:49.541Z,100570.09
2022-09-14T16:49:17.024Z,100572.72
2022-09-14T16:51:43.971Z,100570.22
2022-09-14T16:54:15.756Z,100571.31
2022-09-14T16:56:43.274Z,100569.69
2022-09-14T16:59:10.007Z,100571.50
2022-09-14T17:01:39.862Z,100562.72
2022-09-14T17:04:13.173Z,100567.16
2022-09-14T17:06:42.048Z,100577.84
2022-09-14T17:09:14.303Z,100578.13
2022-09-14T17:11:41.678Z,100568.25
2022-09-14T17:14:12.977Z,100576.31
2022-09-14T17:16:39.624Z,100584.22
2022-09-14T17:19:06.113Z,100582.53
2022-09-14T17:21:35.809Z,100587.09
2022-09-14T17:24:04.323Z,100590.03
2022-09-14T17:26:31.446Z,100586.53
2022-09-14T17:28:59.116Z,100587.50
2022-09-14T17:31:28.691Z,100595.41
2022-09-14T17:33:56.792Z,100596.53
2022-09-14T17:36:23.823Z,100597.47
2022-09-14T17:38:50.434Z,100598.88
2022-09-14T17:41:22.153Z,100595.53
2022-09-14T17:43:53.647Z,100604.25
2022-09-14T17:46:22.476Z,100609.22
2022-09-14T17:48:49.779Z,100605.06
2022-09-14T17:51:20.613Z,100607.56
2022-09-14T17:53:49.724Z,100616.56
2022-09-14T17:56:19.652Z,100621.13
2022-09-14T17:58:46.365Z,100618.88
2022-09-14T18:01:18.918Z,100619.47
2022-09-14T18:03:51.718Z,100629.03
2022-09-14T18:06:19.003Z,100628.44
2022-09-14T18:08:47.179Z,100620.69
2022-09-14T18:11:16.880Z,100629.31
2022-09-14T18:13:46.430Z,100627.75
2022-09-14T18:16:14.652Z,100630.53
2022-09-14T18:18:41.498Z,100634.69
2022-09-14T18:21:11.082Z,100641.50
2022-09-14T18:23:38.156Z,100644.00
2022-09-14T18:26:06.844Z,100648.81
2022-09-14T18:28:35.395Z,100642.41
2022-09-14T18:31:04.664Z,100644.75
2022-09-14T18:33:31.604Z,100639.50
2022-09-14T18:35:58.123Z,100642.53
2022-09-14T18:38:25.257Z,100645.03
2022-09-14T18:40:51.775Z,100646.16
2022-09-14T18:43:18.380Z,100651.66
2022-09-14T18:45:45.743Z,100650.81
2022-09-14T18:48:13.276Z,100650.25
2022-09-14T18:50:40.585Z,100644.97
2022-09-14T18:53:07.409Z,100650.81
2022-09-14T18:55:34.340Z,100653.03
2022-09-14T18:58:01.400Z,100645.75
2022-09-14T19:00:28.445Z,100651.84
2022-09-14T19:02:56.787Z,100659.03
2022-09-14T19:05:24.977Z,100655.94
2022-09-14T19:07:51.541Z,100652.50
2022-09-14T19:10:18.069Z,100650.56
2022-09-14T19:12:45.004Z,100655.34
2022-09-14T19:15:12.256Z,100655.50
2022-09-14T19:17:38.701Z,100659.09
2022-09-14T19:20:09.442Z,100660.91
2022-09-14T19:22:35.940Z,100658.25
2022-09-14T19:25:02.548Z,100660.44
2022-09-14T19:27:29.320Z,100656.25
2022-09-14T19:29:55.743Z,100658.34
2022-09-14T19:32:22.276Z,100667.28
2022-09-14T19:34:49.503Z,100664.09
2022-09-14T19:37:16.026Z,100662.53
2022-09-14T19:39:42.607Z,100670.44
2022-09-14T19:42:09.411Z,100660.06
2022-09-14T19:44:35.923Z,100669.38
2022-09-14T19:47:02.529Z,100665.16
2022-09-14T19:49:29.138Z,100662.91
2022-09-14T19:51:56.539Z,100659.47
2022-09-14T19:54:23.041Z,100660.78
2022-09-14T19:56:50.308Z,100668.72
2022-09-14T19:59:16.890Z,100671.75
2022-09-14T20:01:43.850Z,100667.69
2022-09-14T20:04:11.163Z,100672.94
2022-09-14T20:06:40.574Z,100675.47
2022-09-14T20:09:18.972Z,100675.47
2022-09-14T20:11:47.380Z,100680.13
2022-09-14T20:14:16.952Z,100677.88
2022-09-14T20:16:49.217Z,100675.47
2022-09-14T20:19:21.124Z,100674.53
2022-09-14T20:21:49.432Z,100683.63
2022-09-14T20:24:25.542Z,100678.47
2022-09-14T20:26:57.642Z,100674.69
2022-09-14T20:29:25.258Z,100683.06
2022-09-14T20:31:52.220Z,100686.28
2022-09-14T20:34:20.531Z,100679.25
2022-09-14T20:36:49.144Z,100685.84
2022-09-14T20:39:16.445Z,100679.75
2022-09-14T20:41:43.136Z,100692.88
2022-09-14T20:44:10.585Z,100689.75
2022-09-14T20:46:42.778Z,100691.66
2022-09-14T20:49:15.042Z,100687.38
2022-09-14T20:51:42.337Z,100693.09
2022-09-14T20:54:14.414Z,100688.78
2022-09-14T20:56:42.025Z,100691.56
2022-09-14T20:59:15.556Z,100693.47
2022-09-14T21:01:44.282Z,100697.19
2022-09-14T21:04:17.323Z,100694.66
2022-09-14T21:06:49.108Z,100695.59
2022-09-14T21:09:18.255Z,100697.28
2022-09-14T21:11:45.926Z,100705.16
2022-09-14T21:14:14.484Z,100702.66
2022-09-14T21:16:43.517Z,100704.44
2022-09-14T21:19:19.657Z,100712.91
2022-09-14T21:21:47.403Z,100712.34
2022-09-14T21:24:14.950Z,100710.75
2022-09-14T21:26:43.320Z,100707.66
2022-09-14T21:29:14.469Z,100714.09
2022-09-14T21:31:41.525Z,100704.78
2022-09-14T21:34:10.231Z,100703.34
2022-09-14T21:36:39.847Z,100710.50
2022-09-14T21:39:09.586Z,100702.16
2022-09-14T21:41:37.401Z,100698.81
2022-09-14T21:44:04.202Z,100685.19
2022-09-14T21:46:30.980Z,100685.44
2022-09-14T21:48:58.015Z,100689.22
2022-09-14T21:51:26.542Z,100694.59
2022-09-14T21:53:55.339Z,100696.63
2022-09-14T21:56:23.777Z,100700.09
2022-09-14T21:58:52.308Z,100695.19
2022-09-14T22:01:21.634Z,100700.53
2022-09-14T22:03:50.740Z,100701.25
2022-09-14T22:06:18.821Z,100705.53
2022-09-14T22:08:45.525Z,100707.06
2022-09-14T22:11:15.168Z,100710.41
2022-09-14T22:13:41.982Z,100715.75
2022-09-14T22:16:16.383Z,100707.69
2022-09-14T22:18:49.657Z,100706.00
2022-09-14T22:21:17.272Z,100707.78
2022-09-14T22:23:48.133Z,100709.34
2022-09-14T22:26:14.565Z,100711.03
2022-09-14T22:28:41.067Z,100710.06
2022-09-14T22:31:08.907Z,100705.63
2022-09-14T22:33:35.695Z,100708.88
2022-09-14T22:36:03.671Z,100710.16
2022-09-14T22:38:34.516Z,100710.88
2022-09-14T22:41:02.260Z,100708.50
2022-09-14T22:43:29.684Z,100712.06
2022-09-14T22:45:56.705Z,100716.38
2022-09-14T22:48:24.028Z,100709.44
2022-09-14T22:50:54.099Z,100718.50
2022-09-14T22:53:22.730Z,100717.78
2022-09-14T22:55:50.072Z,100720.28
2022-09-14T22:58:19.912Z,100714.09
2022-09-14T23:00:46.930Z,100710.66
2022-09-14T23:03:14.961Z,100721.13
2022-09-14T23:05:50.036Z,100720.19
2022-09-14T23:08:17.193Z,100715.16
2022-09-14T23:10:44.269Z,100723.97
2022-09-14T23:13:11.094Z,100723.22
2022-09-14T23:15:39.690Z,100724.81
2022-09-14T23:18:07.183Z,100726.38
2022-09-14T23:20:38.560Z,100734.84
2022-09-14T23:23:05.118Z,100739.03
2022-09-14T23:25:33.869Z,100741.53
2022-09-14T23:28:00.463Z,100741.66
2022-09-14T23:30:27.035Z,100739.03
2022-09-14T23:32:53.717Z,100745.00
2022-09-14T23:35:20.167Z,100752.75
2022-09-14T23:37:46.668Z,100746.69
2022-09-14T23:40:13.178Z,100750.03
2022-09-14T23:42:39.861Z,100748.25
2022-09-14T23:45:07.120Z,100750.03
2022-09-14T23:47:33.887Z,100744.06
2022-09-14T23:50:00.309Z,100748.59
2022-09-14T23:52:26.803Z,100749.41
2022-09-14T23:54:53.569Z,100748.78
2022-09-14T23:57:20.392Z,100744.75
2022-09-14T23:59:46.885Z,100739.50
